sensor_id;sensor_type;location;lat;lon;timestamp;temperature;humidity
2459;DHT22;1241;50.920;6.936;2023-04-03T00:00:41;6.10;99.90
2459;DHT22;1241;50.920;6.936;2023-04-03T00:03:07;6.00;99.90
2459;DHT22;1241;50.920;6.936;2023-04-03T00:05:33;6.00;99.90
2459;DHT22;1241;50.920;6.936;2023-04-03T00:07:58;6.00;99.90
2459;DHT22;1241;50.920;6.936;2023-04-03T00:10:24;6.00;99.90
2459;DHT22;1241;50.920;6.936;2023-04-03T00:12:50;6.10;99.90
2459;DHT22;1241;50.920;6.936;2023-04-03T00:15:16;6.00;99.90
2459;DHT22;1241;50.920;6.936;2023-04-03T00:17:42;6.00;99.90
2459;DHT22;1241;50.920;6.936;2023-04-03T00:20:08;6.00;99.90
2459;DHT22;1241;50.920;6.936;2023-04-03T00:22:34;5.90;99.90
2459;DHT22;1241;50.920;6.936;2023-04-03T00:24:59;5.80;99.90
2459;DHT22;1241;50.920;6.936;2023-04-03T00:27:25;5.90;99.90
2459;DHT22;1241;50.920;6.936;2023-04-03T00:29:51;5.80;99.90
2459;DHT22;1241;50.920;6.936;2023-04-03T00:32:17;5.80;99.90
2459;DHT22;1241;50.920;6.936;2023-04-03T00:34:43;5.80;99.90
2459;DHT22;1241;50.920;6.936;2023-04-03T00:37:09;5.70;99.90
2459;DHT22;1241;50.920;6.936;2023-04-03T00:39:34;5.70;99.90
2459;DHT22;1241;50.920;6.936;2023-04-03T00:42:00;5.60;99.90
2459;DHT22;1241;50.920;6.936;2023-04-03T00:47:06;5.40;99.90
2459;DHT22;1241;50.920;6.936;2023-04-03T00:49:33;5.40;99.90
2459;DHT22;1241;50.920;6.936;2023-04-03T00:51:59;5.30;99.90
2459;DHT22;1241;50.920;6.936;2023-04-03T00:54:26;5.30;99.90
2459;DHT22;1241;50.920;6.936;2023-04-03T00:56:53;5.20;99.90
2459;DHT22;1241;50.920;6.936;2023-04-03T00:59:27;5.00;99.90
2459;DHT22;1241;50.920;6.936;2023-04-03T01:01:54;4.90;99.90
2459;DHT22;1241;50.920;6.936;2023-04-03T01:04:32;4.90;99.90
2459;DHT22;1241;50.920;6.936;2023-04-03T01:07:01;4.80;99.90
2459;DHT22;1241;50.920;6.936;2023-04-03T01:09:28;4.70;99.90
2459;DHT22;1241;50.920;6.936;2023-04-03T01:12:22;4.70;99.90
2459;DHT22;1241;50.920;6.936;2023-04-03T01:14:52;4.60;99.90
2459;DHT22;1241;50.920;6.936;2023-04-03T01:25:34;4.50;99.90
2459;DHT22;1241;50.920;6.936;2023-04-03T01:28:04;4.50;99.90
2459;DHT22;1241;50.920;6.936;2023-04-03T01:30:35;4.50;99.90
2459;DHT22;1241;50.920;6.936;2023-04-03T01:33:01;4.50;99.90
2459;DHT22;1241;50.920;6.936;2023-04-03T01:35:28;4.50;99.90
2459;DHT22;1241;50.920;6.936;2023-04-03T01:37:53;4.50;99.90
2459;DHT22;1241;50.920;6.936;2023-04-03T01:40:19;4.50;99.90
2459;DHT22;1241;50.920;6.936;2023-04-03T01:42:46;4.60;99.90
2459;DHT22;1241;50.920;6.936;2023-04-03T01:45:12;4.60;99.90
2459;DHT22;1241;50.920;6.936;2023-04-03T01:47:38;4.60;99.90
2459;DHT22;1241;50.920;6.936;2023-04-03T01:50:05;4.60;99.90
2459;DHT22;1241;50.920;6.936;2023-04-03T01:52:32;4.70;99.90
2459;DHT22;1241;50.920;6.936;2023-04-03T01:54:58;4.80;99.90
2459;DHT22;1241;50.920;6.936;2023-04-03T01:57:24;4.70;99.90
2459;DHT22;1241;50.920;6.936;2023-04-03T01:59:50;4.70;99.90
2459;DHT22;1241;50.920;6.936;2023-04-03T02:02:17;4.60;99.90
2459;DHT22;1241;50.920;6.936;2023-04-03T02:04:42;4.70;99.90
2459;DHT22;1241;50.920;6.936;2023-04-03T02:07:08;4.80;99.90
2459;DHT22;1241;50.920;6.936;2023-04-03T02:09:34;4.80;99.90
2459;DHT22;1241;50.920;6.936;2023-04-03T02:12:00;4.80;99.90
2459;DHT22;1241;50.920;6.936;2023-04-03T02:14:26;4.70;99.90
2459;DHT22;1241;50.920;6.936;2023-04-03T02:16:53;4.60;99.90
2459;DHT22;1241;50.920;6.936;2023-04-03T02:19:21;4.60;99.90
2459;DHT22;1241;50.920;6.936;2023-04-03T02:21:48;4.60;99.90
2459;DHT22;1241;50.920;6.936;2023-04-03T02:24:14;4.60;99.90
2459;DHT22;1241;50.920;6.936;2023-04-03T02:26:40;4.70;99.90
2459;DHT22;1241;50.920;6.936;2023-04-03T02:29:05;4.70;99.90
2459;DHT22;1241;50.920;6.936;2023-04-03T02:31:31;4.70;99.90
2459;DHT22;1241;50.920;6.936;2023-04-03T02:33:59;4.60;99.90
2459;DHT22;1241;50.920;6.936;2023-04-03T02:36:25;4.60;99.90
2459;DHT22;1241;50.920;6.936;2023-04-03T02:38:55;4.60;99.90
2459;DHT22;1241;50.920;6.936;2023-04-03T02:41:21;4.40;99.90
2459;DHT22;1241;50.920;6.936;2023-04-03T02:43:49;4.40;99.90
2459;DHT22;1241;50.920;6.936;2023-04-03T02:46:15;4.30;99.90
2459;DHT22;1241;50.920;6.936;2023-04-03T02:48:41;4.30;99.90
2459;DHT22;1241;50.920;6.936;2023-04-03T02:51:07;4.30;99.90
2459;DHT22;1241;50.920;6.936;2023-04-03T02:53:33;4.30;99.90
2459;DHT22;1241;50.920;6.936;2023-04-03T02:56:04;4.20;99.90
2459;DHT22;1241;50.920;6.936;2023-04-03T02:58:30;4.30;99.90
2459;DHT22;1241;50.920;6.936;2023-04-03T03:00:58;4.20;99.90
2459;DHT22;1241;50.920;6.936;2023-04-03T03:03:23;4.20;99.90
2459;DHT22;1241;50.920;6.936;2023-04-03T03:05:49;4.10;99.90
2459;DHT22;1241;50.920;6.936;2023-04-03T03:08:15;4.10;99.90
2459;DHT22;1241;50.920;6.936;2023-04-03T03:10:41;4.00;99.90
2459;DHT22;1241;50.920;6.936;2023-04-03T03:13:06;4.10;99.90
2459;DHT22;1241;50.920;6.936;2023-04-03T03:15:32;4.00;99.90
2459;DHT22;1241;50.920;6.936;2023-04-03T03:17:58;3.90;99.90
2459;DHT22;1241;50.920;6.936;2023-04-03T03:20:23;3.90;99.90
2459;DHT22;1241;50.920;6.936;2023-04-03T03:22:49;3.90;99.90
2459;DHT22;1241;50.920;6.936;2023-04-03T03:25:15;3.90;99.90
2459;DHT22;1241;50.920;6.936;2023-04-03T03:27:40;3.80;99.90
2459;DHT22;1241;50.920;6.936;2023-04-03T03:30:07;3.70;99.90
2459;DHT22;1241;50.920;6.936;2023-04-03T03:32:33;3.70;99.90
2459;DHT22;1241;50.920;6.936;2023-04-03T03:34:59;3.60;99.90
2459;DHT22;1241;50.920;6.936;2023-04-03T03:37:25;3.60;99.90
2459;DHT22;1241;50.920;6.936;2023-04-03T03:39:50;3.50;99.90
2459;DHT22;1241;50.920;6.936;2023-04-03T03:42:16;3.50;99.90
2459;DHT22;1241;50.920;6.936;2023-04-03T03:44:42;3.50;99.90
2459;DHT22;1241;50.920;6.936;2023-04-03T03:47:08;3.50;99.90
2459;DHT22;1241;50.920;6.936;2023-04-03T03:49:36;3.50;99.90
2459;DHT22;1241;50.920;6.936;2023-04-03T03:52:02;3.40;99.90
2459;DHT22;1241;50.920;6.936;2023-04-03T03:54:28;3.40;99.90
2459;DHT22;1241;50.920;6.936;2023-04-03T03:56:54;3.30;99.90
2459;DHT22;1241;50.920;6.936;2023-04-03T03:59:20;3.30;99.90
2459;DHT22;1241;50.920;6.936;2023-04-03T04:01:46;3.20;99.90
2459;DHT22;1241;50.920;6.936;2023-04-03T04:04:12;3.20;99.90
2459;DHT22;1241;50.920;6.936;2023-04-03T04:06:38;3.20;99.90
2459;DHT22;1241;50.920;6.936;2023-04-03T04:09:08;3.20;99.90
2459;DHT22;1241;50.920;6.936;2023-04-03T04:11:34;3.10;99.90
2459;DHT22;1241;50.920;6.936;2023-04-03T04:14:00;3.10;99.90
2459;DHT22;1241;50.920;6.936;2023-04-03T04:16:28;3.10;99.90
2459;DHT22;1241;50.920;6.936;2023-04-03T04:18:56;3.10;99.90
2459;DHT22;1241;50.920;6.936;2023-04-03T04:21:22;2.90;99.90
2459;DHT22;1241;50.920;6.936;2023-04-03T04:23:51;2.90;99.90
2459;DHT22;1241;50.920;6.936;2023-04-03T04:26:16;2.90;99.90
2459;DHT22;1241;50.920;6.936;2023-04-03T04:28:42;2.90;99.90
2459;DHT22;1241;50.920;6.936;2023-04-03T04:31:08;2.90;99.90
2459;DHT22;1241;50.920;6.936;2023-04-03T04:33:34;2.90;99.90
2459;DHT22;1241;50.920;6.936;2023-04-03T04:36:02;2.80;99.90
2459;DHT22;1241;50.920;6.936;2023-04-03T04:38:28;2.80;99.90
2459;DHT22;1241;50.920;6.936;2023-04-03T04:40:54;2.80;99.90
2459;DHT22;1241;50.920;6.936;2023-04-03T04:43:20;2.80;99.90
2459;DHT22;1241;50.920;6.936;2023-04-03T04:46:06;2.80;99.90
2459;DHT22;1241;50.920;6.936;2023-04-03T04:48:37;2.80;99.90
2459;DHT22;1241;50.920;6.936;2023-04-03T04:51:04;2.80;99.90
2459;DHT22;1241;50.920;6.936;2023-04-03T04:53:30;2.80;99.90
2459;DHT22;1241;50.920;6.936;2023-04-03T04:55:56;2.80;99.90
2459;DHT22;1241;50.920;6.936;2023-04-03T04:58:22;2.80;99.90
2459;DHT22;1241;50.920;6.936;2023-04-03T05:00:49;2.70;99.90
2459;DHT22;1241;50.920;6.936;2023-04-03T05:03:15;2.80;99.90
2459;DHT22;1241;50.920;6.936;2023-04-03T05:05:41;2.80;99.90
2459;DHT22;1241;50.920;6.936;2023-04-03T05:08:07;2.80;99.90
2459;DHT22;1241;50.920;6.936;2023-04-03T05:10:34;2.90;99.90
2459;DHT22;1241;50.920;6.936;2023-04-03T05:13:01;2.80;99.90
2459;DHT22;1241;50.920;6.936;2023-04-03T05:15:27;2.80;99.90
2459;DHT22;1241;50.920;6.936;2023-04-03T05:17:52;2.80;99.90
2459;DHT22;1241;50.920;6.936;2023-04-03T05:20:18;2.80;99.90
2459;DHT22;1241;50.920;6.936;2023-04-03T05:22:45;2.80;99.90
2459;DHT22;1241;50.920;6.936;2023-04-03T05:25:12;2.90;99.90
2459;DHT22;1241;50.920;6.936;2023-04-03T05:27:41;2.90;99.90
2459;DHT22;1241;50.920;6.936;2023-04-03T05:30:07;2.90;99.90
2459;DHT22;1241;50.920;6.936;2023-04-03T05:32:35;3.00;99.90
2459;DHT22;1241;50.920;6.936;2023-04-03T05:35:20;3.00;99.90
2459;DHT22;1241;50.920;6.936;2023-04-03T05:37:49;3.00;99.90
2459;DHT22;1241;50.920;6.936;2023-04-03T05:42:45;3.20;99.90
2459;DHT22;1241;50.920;6.936;2023-04-03T05:50:05;3.60;99.90
2459;DHT22;1241;50.920;6.936;2023-04-03T05:52:38;3.80;99.90
2459;DHT22;1241;50.920;6.936;2023-04-03T05:57:33;4.10;99.90
2459;DHT22;1241;50.920;6.936;2023-04-03T05:59:59;4.30;99.90
2459;DHT22;1241;50.920;6.936;2023-04-03T06:02:25;4.50;99.90
2459;DHT22;1241;50.920;6.936;2023-04-03T06:04:52;4.60;99.90
2459;DHT22;1241;50.920;6.936;2023-04-03T06:07:20;4.90;99.90
2459;DHT22;1241;50.920;6.936;2023-04-03T06:09:50;4.90;99.90
2459;DHT22;1241;50.920;6.936;2023-04-03T06:12:19;5.20;99.90
2459;DHT22;1241;50.920;6.936;2023-04-03T06:14:45;5.40;99.90
2459;DHT22;1241;50.920;6.936;2023-04-03T06:17:13;5.50;99.90
2459;DHT22;1241;50.920;6.936;2023-04-03T06:19:39;5.70;99.90
2459;DHT22;1241;50.920;6.936;2023-04-03T06:22:05;5.70;99.90
2459;DHT22;1241;50.920;6.936;2023-04-03T06:24:31;5.70;99.90
2459;DHT22;1241;50.920;6.936;2023-04-03T06:26:57;5.60;99.90
2459;DHT22;1241;50.920;6.936;2023-04-03T06:29:23;5.70;99.90
2459;DHT22;1241;50.920;6.936;2023-04-03T06:31:50;5.90;99.90
2459;DHT22;1241;50.920;6.936;2023-04-03T06:34:16;6.00;99.90
2459;DHT22;1241;50.920;6.936;2023-04-03T06:36:44;6.00;99.90
2459;DHT22;1241;50.920;6.936;2023-04-03T06:39:15;6.10;99.90
2459;DHT22;1241;50.920;6.936;2023-04-03T06:41:42;6.30;99.90
2459;DHT22;1241;50.920;6.936;2023-04-03T06:44:08;6.50;99.90
2459;DHT22;1241;50.920;6.936;2023-04-03T06:46:37;6.40;99.90
2459;DHT22;1241;50.920;6.936;2023-04-03T06:49:03;6.50;99.90
2459;DHT22;1241;50.920;6.936;2023-04-03T06:51:30;6.40;99.90
2459;DHT22;1241;50.920;6.936;2023-04-03T06:53:57;6.60;99.90
2459;DHT22;1241;50.920;6.936;2023-04-03T06:56:24;6.70;99.90
2459;DHT22;1241;50.920;6.936;2023-04-03T06:58:50;6.80;99.90
2459;DHT22;1241;50.920;6.936;2023-04-03T07:01:18;6.60;99.90
2459;DHT22;1241;50.920;6.936;2023-04-03T07:03:48;6.60;99.90
2459;DHT22;1241;50.920;6.936;2023-04-03T07:06:15;6.70;99.90
2459;DHT22;1241;50.920;6.936;2023-04-03T07:08:41;6.80;99.90
2459;DHT22;1241;50.920;6.936;2023-04-03T07:11:08;7.00;99.90
2459;DHT22;1241;50.920;6.936;2023-04-03T07:13:34;7.00;99.90
2459;DHT22;1241;50.920;6.936;2023-04-03T07:16:01;7.00;99.90
2459;DHT22;1241;50.920;6.936;2023-04-03T07:18:26;6.90;99.90
2459;DHT22;1241;50.920;6.936;2023-04-03T07:20:52;6.70;99.90
2459;DHT22;1241;50.920;6.936;2023-04-03T07:23:18;6.60;99.90
2459;DHT22;1241;50.920;6.936;2023-04-03T07:25:45;6.40;99.90
2459;DHT22;1241;50.920;6.936;2023-04-03T07:28:12;6.40;99.90
2459;DHT22;1241;50.920;6.936;2023-04-03T07:30:49;6.40;99.90
2459;DHT22;1241;50.920;6.936;2023-04-03T07:33:17;6.60;99.90
2459;DHT22;1241;50.920;6.936;2023-04-03T07:35:43;6.60;99.90
2459;DHT22;1241;50.920;6.936;2023-04-03T07:38:09;6.60;99.90
2459;DHT22;1241;50.920;6.936;2023-04-03T07:40:36;6.50;99.90
2459;DHT22;1241;50.920;6.936;2023-04-03T07:43:02;6.40;99.90
2459;DHT22;1241;50.920;6.936;2023-04-03T07:45:28;6.20;99.90
2459;DHT22;1241;50.920;6.936;2023-04-03T07:47:54;6.00;99.90
2459;DHT22;1241;50.920;6.936;2023-04-03T07:50:19;5.90;99.90
2459;DHT22;1241;50.920;6.936;2023-04-03T07:52:45;5.70;99.90
2459;DHT22;1241;50.920;6.936;2023-04-03T07:55:12;5.60;99.90
2459;DHT22;1241;50.920;6.936;2023-04-03T07:57:37;5.60;99.90
2459;DHT22;1241;50.920;6.936;2023-04-03T08:00:04;5.50;99.90
2459;DHT22;1241;50.920;6.936;2023-04-03T08:02:37;5.50;99.90
2459;DHT22;1241;50.920;6.936;2023-04-03T08:05:03;5.40;99.90
2459;DHT22;1241;50.920;6.936;2023-04-03T08:07:29;5.30;99.90
2459;DHT22;1241;50.920;6.936;2023-04-03T08:09:55;5.30;99.90
2459;DHT22;1241;50.920;6.936;2023-04-03T08:12:21;5.30;99.90
2459;DHT22;1241;50.920;6.936;2023-04-03T08:14:47;5.30;99.90
2459;DHT22;1241;50.920;6.936;2023-04-03T08:17:12;5.30;99.90
2459;DHT22;1241;50.920;6.936;2023-04-03T08:19:39;5.30;99.90
2459;DHT22;1241;50.920;6.936;2023-04-03T08:22:05;5.30;99.90
2459;DHT22;1241;50.920;6.936;2023-04-03T08:24:35;5.30;99.90
2459;DHT22;1241;50.920;6.936;2023-04-03T08:27:01;5.40;99.90
2459;DHT22;1241;50.920;6.936;2023-04-03T08:29:27;5.50;99.90
2459;DHT22;1241;50.920;6.936;2023-04-03T08:31:53;5.60;99.90
2459;DHT22;1241;50.920;6.936;2023-04-03T08:34:19;5.60;99.90
2459;DHT22;1241;50.920;6.936;2023-04-03T08:36:45;5.50;99.90
2459;DHT22;1241;50.920;6.936;2023-04-03T08:39:11;5.60;99.90
2459;DHT22;1241;50.920;6.936;2023-04-03T08:41:39;5.70;99.90
2459;DHT22;1241;50.920;6.936;2023-04-03T08:50:02;5.80;99.90
2459;DHT22;1241;50.920;6.936;2023-04-03T08:52:42;5.90;99.90
2459;DHT22;1241;50.920;6.936;2023-04-03T08:55:27;5.90;99.90
2459;DHT22;1241;50.920;6.936;2023-04-03T08:58:03;5.90;99.90
2459;DHT22;1241;50.920;6.936;2023-04-03T09:01:18;6.10;99.90
2459;DHT22;1241;50.920;6.936;2023-04-03T09:03:45;6.10;99.90
2459;DHT22;1241;50.920;6.936;2023-04-03T09:06:26;6.00;99.90
2459;DHT22;1241;50.920;6.936;2023-04-03T09:11:36;6.30;99.90
2459;DHT22;1241;50.920;6.936;2023-04-03T09:19:36;6.70;99.90
2459;DHT22;1241;50.920;6.936;2023-04-03T09:22:22;6.70;99.90
2459;DHT22;1241;50.920;6.936;2023-04-03T09:24:57;6.60;99.90
2459;DHT22;1241;50.920;6.936;2023-04-03T09:27:24;6.60;99.90
2459;DHT22;1241;50.920;6.936;2023-04-03T09:29:53;6.70;99.90
2459;DHT22;1241;50.920;6.936;2023-04-03T09:32:46;6.80;99.90
2459;DHT22;1241;50.920;6.936;2023-04-03T09:35:26;7.00;99.90
2459;DHT22;1241;50.920;6.936;2023-04-03T09:40:39;7.10;99.90
2459;DHT22;1241;50.920;6.936;2023-04-03T09:45:44;7.30;99.90
2459;DHT22;1241;50.920;6.936;2023-04-03T09:50:53;7.30;99.90
2459;DHT22;1241;50.920;6.936;2023-04-03T09:53:38;7.30;99.90
2459;DHT22;1241;50.920;6.936;2023-04-03T09:56:25;7.30;99.90
2459;DHT22;1241;50.920;6.936;2023-04-03T09:59:15;7.30;99.80
2459;DHT22;1241;50.920;6.936;2023-04-03T10:01:46;7.30;99.90
2459;DHT22;1241;50.920;6.936;2023-04-03T10:04:22;7.50;99.90
2459;DHT22;1241;50.920;6.936;2023-04-03T10:06:54;7.60;99.90
2459;DHT22;1241;50.920;6.936;2023-04-03T10:09:29;7.60;99.90
2459;DHT22;1241;50.920;6.936;2023-04-03T10:12:07;7.50;99.00
2459;DHT22;1241;50.920;6.936;2023-04-03T10:14:37;7.40;99.90
2459;DHT22;1241;50.920;6.936;2023-04-03T10:28:08;7.90;99.90
2459;DHT22;1241;50.920;6.936;2023-04-03T10:31:15;8.00;99.90
2459;DHT22;1241;50.920;6.936;2023-04-03T10:33:52;8.30;96.30
2459;DHT22;1241;50.920;6.936;2023-04-03T10:36:44;8.30;90.00
2459;DHT22;1241;50.920;6.936;2023-04-03T10:42:39;8.50;87.70
2459;DHT22;1241;50.920;6.936;2023-04-03T10:48:09;8.70;86.90
2459;DHT22;1241;50.920;6.936;2023-04-03T10:50:43;8.80;81.70
2459;DHT22;1241;50.920;6.936;2023-04-03T10:58:35;9.10;73.10
2459;DHT22;1241;50.920;6.936;2023-04-03T11:01:07;8.90;64.30
2459;DHT22;1241;50.920;6.936;2023-04-03T11:03:44;8.60;63.80
2459;DHT22;1241;50.920;6.936;2023-04-03T11:06:14;8.40;63.70
2459;DHT22;1241;50.920;6.936;2023-04-03T11:08:48;8.30;65.50
2459;DHT22;1241;50.920;6.936;2023-04-03T11:11:43;8.20;62.30
2459;DHT22;1241;50.920;6.936;2023-04-03T11:14:34;8.20;63.40
2459;DHT22;1241;50.920;6.936;2023-04-03T11:22:41;8.70;63.00
2459;DHT22;1241;50.920;6.936;2023-04-03T11:27:58;8.60;65.00
2459;DHT22;1241;50.920;6.936;2023-04-03T11:31:08;8.70;65.90
2459;DHT22;1241;50.920;6.936;2023-04-03T11:36:29;8.90;68.80
2459;DHT22;1241;50.920;6.936;2023-04-03T11:38:59;9.00;66.30
2459;DHT22;1241;50.920;6.936;2023-04-03T11:41:29;9.10;65.70
2459;DHT22;1241;50.920;6.936;2023-04-03T11:44:01;9.20;64.70
2459;DHT22;1241;50.920;6.936;2023-04-03T11:47:03;9.30;63.00
2459;DHT22;1241;50.920;6.936;2023-04-03T11:50:00;9.20;61.50
2459;DHT22;1241;50.920;6.936;2023-04-03T12:13:38;9.20;66.30
2459;DHT22;1241;50.920;6.936;2023-04-03T12:16:27;9.30;66.50
2459;DHT22;1241;50.920;6.936;2023-04-03T12:21:22;9.30;61.20
2459;DHT22;1241;50.920;6.936;2023-04-03T12:29:29;9.30;55.40
2459;DHT22;1241;50.920;6.936;2023-04-03T12:40:39;9.40;57.80
2459;DHT22;1241;50.920;6.936;2023-04-03T12:46:14;9.70;57.30
2459;DHT22;1241;50.920;6.936;2023-04-03T12:48:53;9.90;57.10
2459;DHT22;1241;50.920;6.936;2023-04-03T12:51:42;10.00;55.20
2459;DHT22;1241;50.920;6.936;2023-04-03T12:57:12;10.10;57.20
2459;DHT22;1241;50.920;6.936;2023-04-03T12:59:38;10.20;57.80
2459;DHT22;1241;50.920;6.936;2023-04-03T13:04:47;10.10;54.80
2459;DHT22;1241;50.920;6.936;2023-04-03T13:07:34;9.90;54.60
2459;DHT22;1241;50.920;6.936;2023-04-03T13:12:46;9.90;55.70
2459;DHT22;1241;50.920;6.936;2023-04-03T13:15:20;10.00;55.00
2459;DHT22;1241;50.920;6.936;2023-04-03T13:17:46;9.90;54.70
2459;DHT22;1241;50.920;6.936;2023-04-03T13:20:22;10.00;55.00
2459;DHT22;1241;50.920;6.936;2023-04-03T13:22:59;9.90;54.50
2459;DHT22;1241;50.920;6.936;2023-04-03T13:25:28;9.90;55.10
2459;DHT22;1241;50.920;6.936;2023-04-03T13:27:55;9.90;54.20
2459;DHT22;1241;50.920;6.936;2023-04-03T13:30:32;9.80;54.60
2459;DHT22;1241;50.920;6.936;2023-04-03T13:33:01;9.80;54.20
2459;DHT22;1241;50.920;6.936;2023-04-03T13:35:56;9.90;55.30
2459;DHT22;1241;50.920;6.936;2023-04-03T13:38:25;10.10;53.50
2459;DHT22;1241;50.920;6.936;2023-04-03T13:40:54;10.10;54.00
2459;DHT22;1241;50.920;6.936;2023-04-03T13:43:25;10.10;53.40
2459;DHT22;1241;50.920;6.936;2023-04-03T13:46:23;10.10;53.50
2459;DHT22;1241;50.920;6.936;2023-04-03T13:48:52;9.90;54.70
2459;DHT22;1241;50.920;6.936;2023-04-03T13:53:52;9.80;55.00
2459;DHT22;1241;50.920;6.936;2023-04-03T13:59:02;9.80;56.00
2459;DHT22;1241;50.920;6.936;2023-04-03T14:04:44;9.90;56.50
2459;DHT22;1241;50.920;6.936;2023-04-03T14:07:14;9.90;56.90
2459;DHT22;1241;50.920;6.936;2023-04-03T14:09:40;9.90;55.30
2459;DHT22;1241;50.920;6.936;2023-04-03T14:12:12;9.90;54.70
2459;DHT22;1241;50.920;6.936;2023-04-03T14:14:39;9.90;55.50
2459;DHT22;1241;50.920;6.936;2023-04-03T14:17:22;10.00;55.40
2459;DHT22;1241;50.920;6.936;2023-04-03T14:19:49;10.00;55.20
2459;DHT22;1241;50.920;6.936;2023-04-03T14:22:35;10.10;56.60
2459;DHT22;1241;50.920;6.936;2023-04-03T14:25:01;10.10;54.50
2459;DHT22;1241;50.920;6.936;2023-04-03T14:27:35;10.20;55.00
2459;DHT22;1241;50.920;6.936;2023-04-03T14:30:02;10.30;55.60
2459;DHT22;1241;50.920;6.936;2023-04-03T14:32:29;10.20;55.50
2459;DHT22;1241;50.920;6.936;2023-04-03T14:34:55;10.10;56.70
2459;DHT22;1241;50.920;6.936;2023-04-03T14:37:26;10.00;56.70
2459;DHT22;1241;50.920;6.936;2023-04-03T14:39:54;10.00;57.30
2459;DHT22;1241;50.920;6.936;2023-04-03T14:42:23;10.00;57.30
2459;DHT22;1241;50.920;6.936;2023-04-03T14:44:50;10.00;58.20
2459;DHT22;1241;50.920;6.936;2023-04-03T14:47:19;10.10;57.20
2459;DHT22;1241;50.920;6.936;2023-04-03T14:49:47;10.10;58.20
2459;DHT22;1241;50.920;6.936;2023-04-03T14:52:26;10.20;57.90
2459;DHT22;1241;50.920;6.936;2023-04-03T14:54:52;10.20;57.50
2459;DHT22;1241;50.920;6.936;2023-04-03T14:57:18;10.20;56.90
2459;DHT22;1241;50.920;6.936;2023-04-03T14:59:45;10.10;57.30
2459;DHT22;1241;50.920;6.936;2023-04-03T15:02:37;10.10;58.50
2459;DHT22;1241;50.920;6.936;2023-04-03T15:05:06;10.10;58.00
2459;DHT22;1241;50.920;6.936;2023-04-03T15:07:35;10.10;57.40
2459;DHT22;1241;50.920;6.936;2023-04-03T15:10:28;10.00;57.10
2459;DHT22;1241;50.920;6.936;2023-04-03T15:12:54;10.10;57.20
2459;DHT22;1241;50.920;6.936;2023-04-03T15:15:23;10.20;56.60
2459;DHT22;1241;50.920;6.936;2023-04-03T15:17:54;10.10;55.90
2459;DHT22;1241;50.920;6.936;2023-04-03T15:20:24;10.00;55.40
2459;DHT22;1241;50.920;6.936;2023-04-03T15:22:50;10.00;55.90
2459;DHT22;1241;50.920;6.936;2023-04-03T15:25:16;10.00;56.10
2459;DHT22;1241;50.920;6.936;2023-04-03T15:27:42;9.90;56.80
2459;DHT22;1241;50.920;6.936;2023-04-03T15:30:13;9.80;57.10
2459;DHT22;1241;50.920;6.936;2023-04-03T15:32:39;9.80;58.00
2459;DHT22;1241;50.920;6.936;2023-04-03T15:35:05;9.80;57.80
2459;DHT22;1241;50.920;6.936;2023-04-03T15:37:31;9.90;58.50
2459;DHT22;1241;50.920;6.936;2023-04-03T15:39:56;9.90;58.40
2459;DHT22;1241;50.920;6.936;2023-04-03T15:42:22;9.90;58.30
2459;DHT22;1241;50.920;6.936;2023-04-03T15:44:48;9.80;57.80
2459;DHT22;1241;50.920;6.936;2023-04-03T15:47:13;9.80;58.20
2459;DHT22;1241;50.920;6.936;2023-04-03T15:49:39;9.70;57.70
2459;DHT22;1241;50.920;6.936;2023-04-03T15:52:05;9.70;57.90
2459;DHT22;1241;50.920;6.936;2023-04-03T15:54:31;9.70;57.80
2459;DHT22;1241;50.920;6.936;2023-04-03T15:56:57;9.60;57.70
2459;DHT22;1241;50.920;6.936;2023-04-03T15:59:23;9.60;57.70
2459;DHT22;1241;50.920;6.936;2023-04-03T16:01:49;9.70;58.10
2459;DHT22;1241;50.920;6.936;2023-04-03T16:04:15;9.70;57.20
2459;DHT22;1241;50.920;6.936;2023-04-03T16:06:41;9.70;57.90
2459;DHT22;1241;50.920;6.936;2023-04-03T16:09:08;9.70;57.60
2459;DHT22;1241;50.920;6.936;2023-04-03T16:11:34;9.70;58.70
2459;DHT22;1241;50.920;6.936;2023-04-03T16:14:03;9.70;58.80
2459;DHT22;1241;50.920;6.936;2023-04-03T16:16:29;9.70;60.00
2459;DHT22;1241;50.920;6.936;2023-04-03T16:18:55;9.60;59.80
2459;DHT22;1241;50.920;6.936;2023-04-03T16:21:21;9.60;60.00
2459;DHT22;1241;50.920;6.936;2023-04-03T16:23:48;9.60;61.80
2459;DHT22;1241;50.920;6.936;2023-04-03T16:26:14;9.60;60.50
2459;DHT22;1241;50.920;6.936;2023-04-03T16:28:39;9.60;61.20
2459;DHT22;1241;50.920;6.936;2023-04-03T16:31:06;9.50;60.70
2459;DHT22;1241;50.920;6.936;2023-04-03T16:33:32;9.50;61.20
2459;DHT22;1241;50.920;6.936;2023-04-03T16:35:58;9.40;60.80
2459;DHT22;1241;50.920;6.936;2023-04-03T16:38:24;9.40;61.10
2459;DHT22;1241;50.920;6.936;2023-04-03T16:40:50;9.40;62.70
2459;DHT22;1241;50.920;6.936;2023-04-03T16:43:17;9.30;63.10
2459;DHT22;1241;50.920;6.936;2023-04-03T16:45:43;9.30;63.80
2459;DHT22;1241;50.920;6.936;2023-04-03T16:48:09;9.40;63.40
2459;DHT22;1241;50.920;6.936;2023-04-03T16:50:35;9.30;62.70
2459;DHT22;1241;50.920;6.936;2023-04-03T16:53:01;9.30;63.60
2459;DHT22;1241;50.920;6.936;2023-04-03T16:55:28;9.20;63.10
2459;DHT22;1241;50.920;6.936;2023-04-03T16:57:54;9.10;63.10
2459;DHT22;1241;50.920;6.936;2023-04-03T17:00:20;9.10;63.20
2459;DHT22;1241;50.920;6.936;2023-04-03T17:02:46;9.00;63.10
2459;DHT22;1241;50.920;6.936;2023-04-03T17:05:12;9.00;64.80
2459;DHT22;1241;50.920;6.936;2023-04-03T17:07:38;8.90;64.80
2459;DHT22;1241;50.920;6.936;2023-04-03T17:10:04;8.90;64.10
2459;DHT22;1241;50.920;6.936;2023-04-03T17:12:30;8.90;64.70
2459;DHT22;1241;50.920;6.936;2023-04-03T17:14:55;8.80;67.90
2459;DHT22;1241;50.920;6.936;2023-04-03T17:17:23;8.70;70.40
2459;DHT22;1241;50.920;6.936;2023-04-03T17:19:50;8.60;72.60
2459;DHT22;1241;50.920;6.936;2023-04-03T17:22:16;8.60;74.40
2459;DHT22;1241;50.920;6.936;2023-04-03T17:24:43;8.50;76.10
2459;DHT22;1241;50.920;6.936;2023-04-03T17:27:09;8.50;76.90
2459;DHT22;1241;50.920;6.936;2023-04-03T17:29:34;8.50;76.80
2459;DHT22;1241;50.920;6.936;2023-04-03T17:32:00;8.40;77.10
2459;DHT22;1241;50.920;6.936;2023-04-03T17:34:26;8.40;78.30
2459;DHT22;1241;50.920;6.936;2023-04-03T17:36:52;8.30;78.10
2459;DHT22;1241;50.920;6.936;2023-04-03T17:39:17;8.30;77.50
2459;DHT22;1241;50.920;6.936;2023-04-03T17:41:43;8.20;78.50
2459;DHT22;1241;50.920;6.936;2023-04-03T17:44:10;8.10;79.00
2459;DHT22;1241;50.920;6.936;2023-04-03T17:46:36;8.10;79.70
2459;DHT22;1241;50.920;6.936;2023-04-03T17:49:02;8.00;79.60
2459;DHT22;1241;50.920;6.936;2023-04-03T17:51:29;8.00;80.60
2459;DHT22;1241;50.920;6.936;2023-04-03T17:53:56;7.90;80.90
2459;DHT22;1241;50.920;6.936;2023-04-03T17:56:24;7.90;81.90
2459;DHT22;1241;50.920;6.936;2023-04-03T17:58:53;7.90;82.60
2459;DHT22;1241;50.920;6.936;2023-04-03T18:01:25;7.90;82.20
2459;DHT22;1241;50.920;6.936;2023-04-03T18:03:53;7.80;82.30
2459;DHT22;1241;50.920;6.936;2023-04-03T18:06:21;7.80;82.60
2459;DHT22;1241;50.920;6.936;2023-04-03T18:08:50;7.70;83.10
2459;DHT22;1241;50.920;6.936;2023-04-03T18:11:17;7.60;85.00
2459;DHT22;1241;50.920;6.936;2023-04-03T18:13:44;7.70;86.30
2459;DHT22;1241;50.920;6.936;2023-04-03T18:16:11;7.60;87.20
2459;DHT22;1241;50.920;6.936;2023-04-03T18:18:38;7.60;87.70
2459;DHT22;1241;50.920;6.936;2023-04-03T18:21:04;7.50;87.80
2459;DHT22;1241;50.920;6.936;2023-04-03T18:23:31;7.50;89.20
2459;DHT22;1241;50.920;6.936;2023-04-03T18:25:59;7.40;90.20
2459;DHT22;1241;50.920;6.936;2023-04-03T18:28:27;7.40;91.80
2459;DHT22;1241;50.920;6.936;2023-04-03T18:30:53;7.30;92.90
2459;DHT22;1241;50.920;6.936;2023-04-03T18:33:18;7.30;93.20
2459;DHT22;1241;50.920;6.936;2023-04-03T18:35:44;7.20;93.10
2459;DHT22;1241;50.920;6.936;2023-04-03T18:38:10;7.20;95.20
2459;DHT22;1241;50.920;6.936;2023-04-03T18:40:36;7.10;95.10
2459;DHT22;1241;50.920;6.936;2023-04-03T18:43:02;7.10;97.10